Licenciado Manuel Crescencio Rejon Int Airport
MMMD : now visible

Airfield :











YOU CAN JOIN US ON...

 
LOGIN :

Register | Disclaimer

   EN    FR    IT 

 









Legend :    VFR   Marginal VFR   IFR   Intensive IFR   Very Intensive IFR
Visi :
Ceiling :
>= 8 km
>= 3000ft
5 to 8 km
1000 to 3000 ft
1500m to 5 km
500 to 1000 ft
800 to 1500m
200 to 500 ft
< 800m
< 200 ft
Symbols :   Thunderstorms  Fog  Heavy snow  Heavy precipitations  Wind > 20 kt






- Airport Elevation : 38 ft
- IATA code : MID


MMMD - Licenciado Manuel Crescencio Rejon Int

CURRENT METAR :
  • 210948Z 34003KT 7SM FEW015 18/14 A3017 RMK 8/500

EXPIRED METARs :
  • 210845Z 34003KT 7SM FEW015 19/14 A3018 RMK SLP221 57002 938 8/500
  • 210745Z 01005KT 7SM SCT015 20/14 A3019 RMK 8/500

TAF TAF MMMD
Valid from the 21 at 06:00 until the 22 at 12:00 UTC


210545Z 2106/2212 36005KT P6SM SCT015 TX26/2121Z TN19/2112Z
FM211800 02014KT P6SM BKN020 BKN250
FM220600 03007KT P6SM SCT020 SCT250



MET'MAP, your aeronautical weather chart ! - Copyright ORBIFLY December 2007 - Disclaimer

ORBIFLY MET'MAP TEAM :

Programming & Development : Alexandra Zaïnal
Concept & original design : Baudouin d'Aumeries
Assistance for programming : Marc-Olivier Méhu
Technical & hardware support : Manuel Goepfert

Contact : metmap@orbifly.com




SOURCES & CREDITS :

   NOAA       Earth
Advisory